Marmul, Oman
Current Conditions -  °F | °C
As of 5:55 AM on Thursday 23 Oct 2014 (Local Time) from KQTH Reporting Station
Clear Clear  
Wind Chill: 68°   Ceiling: Unl
Heat Index: 68°   Visibility: 6mi
Dew Point: 37°   Wind: 6mph
Humidity: 32%   Direction: 170°S
Pressure: 30.08"   Gusts: NA
Location:  18.14°N, 55.17°E
Report Text: KQTH 230155Z 17005KT 9999 CLR 20/03 A3008 RMK AO2A SLP165 T01980027
Loading
Personal Weather Stations






























Interactive Weather Map
Tropical Storm Tracking
New forecast layout! Learn more

10-Day Weather Forecast

Advertisements
Track Severe Weather on mobile